sensor_id;sensor_type;location;lat;lon;timestamp;temperature;humidity
17795;DHT22;9021;50.882;4.326;2023-09-12T00:00:33;23.20;99.90
17795;DHT22;9021;50.882;4.326;2023-09-12T00:02:59;23.20;99.90
17795;DHT22;9021;50.882;4.326;2023-09-12T00:05:25;23.10;99.90
17795;DHT22;9021;50.882;4.326;2023-09-12T00:07:53;23.20;99.90
17795;DHT22;9021;50.882;4.326;2023-09-12T00:10:19;23.10;99.90
17795;DHT22;9021;50.882;4.326;2023-09-12T00:12:45;23.10;99.90
17795;DHT22;9021;50.882;4.326;2023-09-12T00:15:11;23.20;99.90
17795;DHT22;9021;50.882;4.326;2023-09-12T00:17:37;23.10;99.90
17795;DHT22;9021;50.882;4.326;2023-09-12T00:20:03;23.20;99.90
17795;DHT22;9021;50.882;4.326;2023-09-12T00:22:31;23.10;99.90
17795;DHT22;9021;50.882;4.326;2023-09-12T00:24:57;23.10;99.90
17795;DHT22;9021;50.882;4.326;2023-09-12T00:27:22;23.20;99.90
17795;DHT22;9021;50.882;4.326;2023-09-12T00:29:48;23.20;99.90
17795;DHT22;9021;50.882;4.326;2023-09-12T00:32:13;23.20;99.90
17795;DHT22;9021;50.882;4.326;2023-09-12T00:34:39;23.10;99.90
17795;DHT22;9021;50.882;4.326;2023-09-12T00:37:04;23.10;99.90
17795;DHT22;9021;50.882;4.326;2023-09-12T00:39:30;23.10;99.90
17795;DHT22;9021;50.882;4.326;2023-09-12T00:41:55;23.00;99.90
17795;DHT22;9021;50.882;4.326;2023-09-12T00:44:21;23.00;99.90
17795;DHT22;9021;50.882;4.326;2023-09-12T00:46:46;23.00;99.90
17795;DHT22;9021;50.882;4.326;2023-09-12T00:49:14;23.00;99.90
17795;DHT22;9021;50.882;4.326;2023-09-12T00:51:41;23.00;99.90
17795;DHT22;9021;50.882;4.326;2023-09-12T00:54:07;23.00;99.90
17795;DHT22;9021;50.882;4.326;2023-09-12T00:56:32;23.00;99.90
17795;DHT22;9021;50.882;4.326;2023-09-12T00:58:58;22.90;99.90
17795;DHT22;9021;50.882;4.326;2023-09-12T01:01:24;22.90;99.90
17795;DHT22;9021;50.882;4.326;2023-09-12T01:03:49;22.80;99.90
17795;DHT22;9021;50.882;4.326;2023-09-12T01:06:15;22.70;99.90
17795;DHT22;9021;50.882;4.326;2023-09-12T01:08:45;22.60;99.90
17795;DHT22;9021;50.882;4.326;2023-09-12T01:11:10;22.60;99.90
17795;DHT22;9021;50.882;4.326;2023-09-12T01:13:37;22.70;99.90
17795;DHT22;9021;50.882;4.326;2023-09-12T01:16:02;22.70;99.90
17795;DHT22;9021;50.882;4.326;2023-09-12T01:18:28;22.50;99.90
17795;DHT22;9021;50.882;4.326;2023-09-12T01:21:18;22.40;99.90
17795;DHT22;9021;50.882;4.326;2023-09-12T01:23:52;22.40;99.90
17795;DHT22;9021;50.882;4.326;2023-09-12T01:28:44;22.30;99.90
17795;DHT22;9021;50.882;4.326;2023-09-12T01:31:10;22.20;99.90
17795;DHT22;9021;50.882;4.326;2023-09-12T01:33:36;22.30;99.90
17795;DHT22;9021;50.882;4.326;2023-09-12T01:36:02;22.30;99.90
17795;DHT22;9021;50.882;4.326;2023-09-12T01:38:28;22.30;99.90
17795;DHT22;9021;50.882;4.326;2023-09-12T01:40:55;22.30;99.90
17795;DHT22;9021;50.882;4.326;2023-09-12T01:43:21;22.30;99.90
17795;DHT22;9021;50.882;4.326;2023-09-12T01:45:52;22.30;99.90
17795;DHT22;9021;50.882;4.326;2023-09-12T01:48:22;22.40;99.90
17795;DHT22;9021;50.882;4.326;2023-09-12T01:50:48;22.30;99.90
17795;DHT22;9021;50.882;4.326;2023-09-12T01:53:14;22.30;99.90
17795;DHT22;9021;50.882;4.326;2023-09-12T01:55:42;22.40;99.90
17795;DHT22;9021;50.882;4.326;2023-09-12T01:58:07;22.30;99.90
17795;DHT22;9021;50.882;4.326;2023-09-12T02:00:33;22.20;99.90
17795;DHT22;9021;50.882;4.326;2023-09-12T02:02:59;22.20;99.90
17795;DHT22;9021;50.882;4.326;2023-09-12T02:05:24;22.10;99.90
17795;DHT22;9021;50.882;4.326;2023-09-12T02:07:51;22.20;99.90
17795;DHT22;9021;50.882;4.326;2023-09-12T02:10:17;22.10;99.90
17795;DHT22;9021;50.882;4.326;2023-09-12T02:12:42;22.10;99.90
17795;DHT22;9021;50.882;4.326;2023-09-12T02:15:08;22.10;99.90
17795;DHT22;9021;50.882;4.326;2023-09-12T02:17:33;22.10;99.90
17795;DHT22;9021;50.882;4.326;2023-09-12T02:19:59;22.00;99.90
17795;DHT22;9021;50.882;4.326;2023-09-12T02:22:24;22.00;99.90
17795;DHT22;9021;50.882;4.326;2023-09-12T02:24:50;22.10;99.90
17795;DHT22;9021;50.882;4.326;2023-09-12T02:27:16;22.10;99.90
17795;DHT22;9021;50.882;4.326;2023-09-12T02:29:41;22.10;99.90
17795;DHT22;9021;50.882;4.326;2023-09-12T02:32:07;22.00;99.90
17795;DHT22;9021;50.882;4.326;2023-09-12T02:34:33;22.00;99.90
17795;DHT22;9021;50.882;4.326;2023-09-12T02:36:58;21.90;99.90
17795;DHT22;9021;50.882;4.326;2023-09-12T02:39:24;21.90;99.90
17795;DHT22;9021;50.882;4.326;2023-09-12T02:41:49;21.90;99.90
17795;DHT22;9021;50.882;4.326;2023-09-12T02:44:15;22.00;99.90
17795;DHT22;9021;50.882;4.326;2023-09-12T02:46:41;22.10;99.90
17795;DHT22;9021;50.882;4.326;2023-09-12T02:49:07;22.10;99.90
17795;DHT22;9021;50.882;4.326;2023-09-12T02:51:32;22.10;99.90
17795;DHT22;9021;50.882;4.326;2023-09-12T02:53:58;22.20;99.90
17795;DHT22;9021;50.882;4.326;2023-09-12T02:56:23;22.20;99.90
17795;DHT22;9021;50.882;4.326;2023-09-12T02:58:49;22.20;99.90
17795;DHT22;9021;50.882;4.326;2023-09-12T03:01:18;22.20;99.90
17795;DHT22;9021;50.882;4.326;2023-09-12T03:03:47;22.20;99.90
17795;DHT22;9021;50.882;4.326;2023-09-12T03:06:12;22.20;99.90
17795;DHT22;9021;50.882;4.326;2023-09-12T03:08:39;22.20;99.90
17795;DHT22;9021;50.882;4.326;2023-09-12T03:11:05;22.20;99.90
17795;DHT22;9021;50.882;4.326;2023-09-12T03:13:32;22.30;99.90
17795;DHT22;9021;50.882;4.326;2023-09-12T03:15:58;22.30;99.90
17795;DHT22;9021;50.882;4.326;2023-09-12T03:18:24;22.30;99.90
17795;DHT22;9021;50.882;4.326;2023-09-12T03:20:49;22.30;99.90
17795;DHT22;9021;50.882;4.326;2023-09-12T03:23:15;22.30;99.90
17795;DHT22;9021;50.882;4.326;2023-09-12T03:25:40;22.30;99.90
17795;DHT22;9021;50.882;4.326;2023-09-12T03:28:06;22.30;99.90
17795;DHT22;9021;50.882;4.326;2023-09-12T03:30:36;22.40;99.90
17795;DHT22;9021;50.882;4.326;2023-09-12T03:33:02;22.30;99.90
17795;DHT22;9021;50.882;4.326;2023-09-12T03:35:28;22.30;99.90
17795;DHT22;9021;50.882;4.326;2023-09-12T03:37:54;22.30;99.90
17795;DHT22;9021;50.882;4.326;2023-09-12T03:40:19;22.30;99.90
17795;DHT22;9021;50.882;4.326;2023-09-12T03:42:45;22.30;99.90
17795;DHT22;9021;50.882;4.326;2023-09-12T03:45:10;22.30;99.90
17795;DHT22;9021;50.882;4.326;2023-09-12T03:47:36;22.30;99.90
17795;DHT22;9021;50.882;4.326;2023-09-12T03:50:02;22.30;99.90
17795;DHT22;9021;50.882;4.326;2023-09-12T03:52:27;22.30;99.90
17795;DHT22;9021;50.882;4.326;2023-09-12T03:54:53;22.30;99.90
17795;DHT22;9021;50.882;4.326;2023-09-12T03:57:18;22.30;99.90
17795;DHT22;9021;50.882;4.326;2023-09-12T03:59:44;22.10;99.90
17795;DHT22;9021;50.882;4.326;2023-09-12T04:02:12;22.30;99.90
17795;DHT22;9021;50.882;4.326;2023-09-12T04:04:38;22.20;99.90
17795;DHT22;9021;50.882;4.326;2023-09-12T04:07:03;22.30;99.90
17795;DHT22;9021;50.882;4.326;2023-09-12T04:09:29;22.30;99.90
17795;DHT22;9021;50.882;4.326;2023-09-12T04:11:54;22.20;99.90
17795;DHT22;9021;50.882;4.326;2023-09-12T04:14:20;22.20;99.90
17795;DHT22;9021;50.882;4.326;2023-09-12T04:16:46;22.20;99.90
17795;DHT22;9021;50.882;4.326;2023-09-12T04:19:13;22.20;99.90
17795;DHT22;9021;50.882;4.326;2023-09-12T04:21:38;22.20;99.90
17795;DHT22;9021;50.882;4.326;2023-09-12T04:24:04;22.20;99.90
17795;DHT22;9021;50.882;4.326;2023-09-12T04:26:30;22.10;99.90
17795;DHT22;9021;50.882;4.326;2023-09-12T04:28:55;22.20;99.90
17795;DHT22;9021;50.882;4.326;2023-09-12T04:31:21;22.10;99.90
17795;DHT22;9021;50.882;4.326;2023-09-12T04:33:46;22.10;99.90
17795;DHT22;9021;50.882;4.326;2023-09-12T04:36:12;22.00;99.90
17795;DHT22;9021;50.882;4.326;2023-09-12T04:38:37;22.00;99.90
17795;DHT22;9021;50.882;4.326;2023-09-12T04:41:03;22.00;99.90
17795;DHT22;9021;50.882;4.326;2023-09-12T04:43:31;22.10;99.90
17795;DHT22;9021;50.882;4.326;2023-09-12T04:45:57;22.10;99.90
17795;DHT22;9021;50.882;4.326;2023-09-12T04:48:22;22.10;99.90
17795;DHT22;9021;50.882;4.326;2023-09-12T04:50:48;22.10;99.90
17795;DHT22;9021;50.882;4.326;2023-09-12T04:53:14;22.00;99.90
17795;DHT22;9021;50.882;4.326;2023-09-12T04:55:39;22.00;99.90
17795;DHT22;9021;50.882;4.326;2023-09-12T04:58:05;22.10;99.90
17795;DHT22;9021;50.882;4.326;2023-09-12T05:00:31;22.10;99.90
17795;DHT22;9021;50.882;4.326;2023-09-12T05:02:57;22.00;99.90
17795;DHT22;9021;50.882;4.326;2023-09-12T05:05:22;22.10;99.90
17795;DHT22;9021;50.882;4.326;2023-09-12T05:07:48;22.10;99.90
17795;DHT22;9021;50.882;4.326;2023-09-12T05:10:13;21.90;99.90
17795;DHT22;9021;50.882;4.326;2023-09-12T05:12:39;21.90;99.90
17795;DHT22;9021;50.882;4.326;2023-09-12T05:15:04;21.90;99.90
17795;DHT22;9021;50.882;4.326;2023-09-12T05:17:30;21.80;99.90
17795;DHT22;9021;50.882;4.326;2023-09-12T05:19:56;21.70;99.90
17795;DHT22;9021;50.882;4.326;2023-09-12T05:22:21;21.70;99.90
17795;DHT22;9021;50.882;4.326;2023-09-12T05:24:48;21.70;99.90
17795;DHT22;9021;50.882;4.326;2023-09-12T05:27:14;21.70;99.90
17795;DHT22;9021;50.882;4.326;2023-09-12T05:29:40;21.90;99.90
17795;DHT22;9021;50.882;4.326;2023-09-12T05:32:06;21.70;99.90
17795;DHT22;9021;50.882;4.326;2023-09-12T05:34:31;21.70;99.90
17795;DHT22;9021;50.882;4.326;2023-09-12T05:36:57;21.70;99.90
17795;DHT22;9021;50.882;4.326;2023-09-12T05:39:22;21.70;99.90
17795;DHT22;9021;50.882;4.326;2023-09-12T05:41:48;21.70;99.90
17795;DHT22;9021;50.882;4.326;2023-09-12T05:44:14;21.60;99.90
17795;DHT22;9021;50.882;4.326;2023-09-12T05:46:46;21.60;99.90
17795;DHT22;9021;50.882;4.326;2023-09-12T05:49:12;21.60;99.90
17795;DHT22;9021;50.882;4.326;2023-09-12T05:51:41;21.50;99.90
17795;DHT22;9021;50.882;4.326;2023-09-12T05:54:07;19.30;99.90
17795;DHT22;9021;50.882;4.326;2023-09-12T05:56:33;21.60;99.90
17795;DHT22;9021;50.882;4.326;2023-09-12T05:59:02;21.60;99.90
17795;DHT22;9021;50.882;4.326;2023-09-12T06:01:28;21.60;99.90
17795;DHT22;9021;50.882;4.326;2023-09-12T06:03:53;21.50;99.90
17795;DHT22;9021;50.882;4.326;2023-09-12T06:06:19;21.50;99.90
17795;DHT22;9021;50.882;4.326;2023-09-12T06:08:44;21.60;99.90
17795;DHT22;9021;50.882;4.326;2023-09-12T06:11:10;21.70;99.90
17795;DHT22;9021;50.882;4.326;2023-09-12T06:13:35;21.70;99.90
17795;DHT22;9021;50.882;4.326;2023-09-12T06:16:03;21.80;99.90
17795;DHT22;9021;50.882;4.326;2023-09-12T06:18:28;24.30;99.90
17795;DHT22;9021;50.882;4.326;2023-09-12T06:20:57;22.00;99.90
17795;DHT22;9021;50.882;4.326;2023-09-12T06:23:23;22.10;99.90
17795;DHT22;9021;50.882;4.326;2023-09-12T06:25:49;22.20;99.90
17795;DHT22;9021;50.882;4.326;2023-09-12T06:28:23;22.20;99.90
17795;DHT22;9021;50.882;4.326;2023-09-12T06:30:49;22.20;99.90
17795;DHT22;9021;50.882;4.326;2023-09-12T06:33:15;22.30;99.90
17795;DHT22;9021;50.882;4.326;2023-09-12T06:35:40;22.30;99.90
17795;DHT22;9021;50.882;4.326;2023-09-12T06:38:06;22.40;99.90
17795;DHT22;9021;50.882;4.326;2023-09-12T06:40:31;22.40;99.90
17795;DHT22;9021;50.882;4.326;2023-09-12T06:42:56;22.50;99.90
17795;DHT22;9021;50.882;4.326;2023-09-12T06:45:22;22.40;99.90
17795;DHT22;9021;50.882;4.326;2023-09-12T06:47:47;22.50;99.90
17795;DHT22;9021;50.882;4.326;2023-09-12T06:50:13;22.60;99.90
17795;DHT22;9021;50.882;4.326;2023-09-12T06:52:38;22.60;99.90
17795;DHT22;9021;50.882;4.326;2023-09-12T06:55:04;22.70;99.90
17795;DHT22;9021;50.882;4.326;2023-09-12T06:57:30;22.70;99.90
17795;DHT22;9021;50.882;4.326;2023-09-12T06:59:55;22.70;99.90
17795;DHT22;9021;50.882;4.326;2023-09-12T07:02:21;22.60;99.90
17795;DHT22;9021;50.882;4.326;2023-09-12T07:04:47;22.80;99.90
17795;DHT22;9021;50.882;4.326;2023-09-12T07:07:12;22.80;99.90
17795;DHT22;9021;50.882;4.326;2023-09-12T07:09:38;22.90;99.90
17795;DHT22;9021;50.882;4.326;2023-09-12T07:12:03;22.90;99.90
17795;DHT22;9021;50.882;4.326;2023-09-12T07:14:31;22.90;99.90
17795;DHT22;9021;50.882;4.326;2023-09-12T07:16:56;22.80;99.90
17795;DHT22;9021;50.882;4.326;2023-09-12T07:19:22;22.70;99.90
17795;DHT22;9021;50.882;4.326;2023-09-12T07:21:47;22.70;99.90
17795;DHT22;9021;50.882;4.326;2023-09-12T07:24:13;22.80;99.90
17795;DHT22;9021;50.882;4.326;2023-09-12T07:26:38;22.80;99.90
17795;DHT22;9021;50.882;4.326;2023-09-12T07:29:04;22.80;99.90
17795;DHT22;9021;50.882;4.326;2023-09-12T07:31:31;22.80;99.90
17795;DHT22;9021;50.882;4.326;2023-09-12T07:33:56;22.80;99.90
17795;DHT22;9021;50.882;4.326;2023-09-12T07:36:22;22.90;99.90
17795;DHT22;9021;50.882;4.326;2023-09-12T07:38:47;23.20;99.90
17795;DHT22;9021;50.882;4.326;2023-09-12T07:41:13;23.50;99.90
17795;DHT22;9021;50.882;4.326;2023-09-12T07:43:39;23.60;99.90
17795;DHT22;9021;50.882;4.326;2023-09-12T07:46:05;23.70;99.90
17795;DHT22;9021;50.882;4.326;2023-09-12T07:48:31;23.80;99.90
17795;DHT22;9021;50.882;4.326;2023-09-12T07:50:57;23.90;99.90
17795;DHT22;9021;50.882;4.326;2023-09-12T07:53:22;24.00;99.90
17795;DHT22;9021;50.882;4.326;2023-09-12T07:55:48;24.00;99.90
17795;DHT22;9021;50.882;4.326;2023-09-12T07:58:15;24.10;99.90
17795;DHT22;9021;50.882;4.326;2023-09-12T08:00:40;24.20;99.90
17795;DHT22;9021;50.882;4.326;2023-09-12T08:03:06;24.40;99.90
17795;DHT22;9021;50.882;4.326;2023-09-12T08:05:31;24.60;99.90
17795;DHT22;9021;50.882;4.326;2023-09-12T08:07:57;24.90;99.90
17795;DHT22;9021;50.882;4.326;2023-09-12T08:10:22;25.30;99.90
17795;DHT22;9021;50.882;4.326;2023-09-12T08:12:48;25.60;99.90
17795;DHT22;9021;50.882;4.326;2023-09-12T08:15:13;25.90;99.90
17795;DHT22;9021;50.882;4.326;2023-09-12T08:17:39;26.20;99.90
17795;DHT22;9021;50.882;4.326;2023-09-12T08:20:05;26.40;99.90
17795;DHT22;9021;50.882;4.326;2023-09-12T08:22:31;26.40;99.90
17795;DHT22;9021;50.882;4.326;2023-09-12T08:24:56;26.50;99.90
17795;DHT22;9021;50.882;4.326;2023-09-12T08:27:22;26.50;99.90
17795;DHT22;9021;50.882;4.326;2023-09-12T08:29:48;26.50;99.90
17795;DHT22;9021;50.882;4.326;2023-09-12T08:32:14;26.70;99.90
17795;DHT22;9021;50.882;4.326;2023-09-12T08:34:39;26.70;99.90
17795;DHT22;9021;50.882;4.326;2023-09-12T08:37:05;26.90;99.90
17795;DHT22;9021;50.882;4.326;2023-09-12T08:39:40;26.80;99.90
17795;DHT22;9021;50.882;4.326;2023-09-12T08:42:06;26.80;99.90
17795;DHT22;9021;50.882;4.326;2023-09-12T08:44:33;26.70;99.90
17795;DHT22;9021;50.882;4.326;2023-09-12T08:46:59;25.80;99.90
17795;DHT22;9021;50.882;4.326;2023-09-12T08:49:25;25.60;99.90
17795;DHT22;9021;50.882;4.326;2023-09-12T08:51:51;25.70;99.90
17795;DHT22;9021;50.882;4.326;2023-09-12T08:54:16;25.70;99.90
17795;DHT22;9021;50.882;4.326;2023-09-12T08:56:42;25.80;99.90
17795;DHT22;9021;50.882;4.326;2023-09-12T08:59:08;25.70;99.90
17795;DHT22;9021;50.882;4.326;2023-09-12T09:01:35;25.90;99.90
17795;DHT22;9021;50.882;4.326;2023-09-12T09:04:02;26.10;99.90
17795;DHT22;9021;50.882;4.326;2023-09-12T09:06:28;26.30;99.90
17795;DHT22;9021;50.882;4.326;2023-09-12T09:08:55;26.40;99.90
17795;DHT22;9021;50.882;4.326;2023-09-12T09:11:21;26.40;99.90
17795;DHT22;9021;50.882;4.326;2023-09-12T09:13:47;26.40;99.90
17795;DHT22;9021;50.882;4.326;2023-09-12T09:16:16;23.20;99.90
17795;DHT22;9021;50.882;4.326;2023-09-12T09:21:17;27.20;99.90
17795;DHT22;9021;50.882;4.326;2023-09-12T09:23:46;27.40;99.90
17795;DHT22;9021;50.882;4.326;2023-09-12T09:26:12;27.60;99.90
17795;DHT22;9021;50.882;4.326;2023-09-12T09:28:38;27.50;99.90
17795;DHT22;9021;50.882;4.326;2023-09-12T09:31:04;27.60;99.90
17795;DHT22;9021;50.882;4.326;2023-09-12T09:33:35;27.80;99.90
17795;DHT22;9021;50.882;4.326;2023-09-12T09:36:04;27.90;99.90
17795;DHT22;9021;50.882;4.326;2023-09-12T09:38:29;28.00;99.90
17795;DHT22;9021;50.882;4.326;2023-09-12T09:40:55;28.10;99.90
17795;DHT22;9021;50.882;4.326;2023-09-12T09:43:21;28.10;99.90
17795;DHT22;9021;50.882;4.326;2023-09-12T09:45:46;28.20;99.90
17795;DHT22;9021;50.882;4.326;2023-09-12T09:48:19;28.30;99.90
17795;DHT22;9021;50.882;4.326;2023-09-12T09:50:44;28.10;99.90
17795;DHT22;9021;50.882;4.326;2023-09-12T09:53:10;28.10;99.90
17795;DHT22;9021;50.882;4.326;2023-09-12T09:55:36;28.00;99.90
17795;DHT22;9021;50.882;4.326;2023-09-12T09:58:07;28.00;99.90
17795;DHT22;9021;50.882;4.326;2023-09-12T10:00:34;27.60;99.90
17795;DHT22;9021;50.882;4.326;2023-09-12T10:03:03;27.40;99.90
17795;DHT22;9021;50.882;4.326;2023-09-12T10:05:29;27.40;99.90
17795;DHT22;9021;50.882;4.326;2023-09-12T10:07:56;27.40;99.90
17795;DHT22;9021;50.882;4.326;2023-09-12T10:10:23;27.40;99.90
17795;DHT22;9021;50.882;4.326;2023-09-12T10:12:50;27.40;99.90
17795;DHT22;9021;50.882;4.326;2023-09-12T10:15:19;27.50;99.90
17795;DHT22;9021;50.882;4.326;2023-09-12T10:17:46;27.60;99.90
17795;DHT22;9021;50.882;4.326;2023-09-12T10:20:15;27.70;99.90
17795;DHT22;9021;50.882;4.326;2023-09-12T10:22:48;27.80;99.90
17795;DHT22;9021;50.882;4.326;2023-09-12T10:25:16;27.80;99.90
17795;DHT22;9021;50.882;4.326;2023-09-12T10:27:42;27.80;99.90
17795;DHT22;9021;50.882;4.326;2023-09-12T10:30:08;27.80;99.90
17795;DHT22;9021;50.882;4.326;2023-09-12T10:32:33;27.70;99.90
17795;DHT22;9021;50.882;4.326;2023-09-12T10:34:59;27.70;99.90
17795;DHT22;9021;50.882;4.326;2023-09-12T10:37:25;27.70;99.90
17795;DHT22;9021;50.882;4.326;2023-09-12T10:39:54;27.70;99.90
17795;DHT22;9021;50.882;4.326;2023-09-12T10:42:21;27.70;99.90
17795;DHT22;9021;50.882;4.326;2023-09-12T10:44:47;27.70;99.90
17795;DHT22;9021;50.882;4.326;2023-09-12T10:47:13;27.30;99.90
17795;DHT22;9021;50.882;4.326;2023-09-12T10:49:39;27.50;99.90
17795;DHT22;9021;50.882;4.326;2023-09-12T10:52:05;27.70;99.90
17795;DHT22;9021;50.882;4.326;2023-09-12T10:57:03;27.90;99.90
17795;DHT22;9021;50.882;4.326;2023-09-12T10:59:29;27.80;99.90
17795;DHT22;9021;50.882;4.326;2023-09-12T11:02:26;27.80;99.80
17795;DHT22;9021;50.882;4.326;2023-09-12T11:04:42;27.70;99.90
17795;DHT22;9021;50.882;4.326;2023-09-12T11:07:29;27.90;99.90
17795;DHT22;9021;50.882;4.326;2023-09-12T11:12:48;28.20;99.40
17795;DHT22;9021;50.882;4.326;2023-09-12T11:15:15;27.30;98.90
17795;DHT22;9021;50.882;4.326;2023-09-12T11:17:41;28.70;99.30
17795;DHT22;9021;50.882;4.326;2023-09-12T11:20:07;29.80;98.50
17795;DHT22;9021;50.882;4.326;2023-09-12T11:22:36;31.50;96.70
17795;DHT22;9021;50.882;4.326;2023-09-12T11:25:02;32.50;95.30
17795;DHT22;9021;50.882;4.326;2023-09-12T11:27:31;32.10;95.10
17795;DHT22;9021;50.882;4.326;2023-09-12T11:30:04;31.60;95.50
17795;DHT22;9021;50.882;4.326;2023-09-12T11:32:31;32.60;95.20
17795;DHT22;9021;50.882;4.326;2023-09-12T11:34:57;34.10;93.60
17795;DHT22;9021;50.882;4.326;2023-09-12T11:37:23;35.10;92.00
17795;DHT22;9021;50.882;4.326;2023-09-12T11:39:49;35.90;92.40
17795;DHT22;9021;50.882;4.326;2023-09-12T11:42:15;36.60;90.50
17795;DHT22;9021;50.882;4.326;2023-09-12T11:44:41;37.00;90.00
17795;DHT22;9021;50.882;4.326;2023-09-12T11:47:09;38.60;87.60
17795;DHT22;9021;50.882;4.326;2023-09-12T11:49:36;41.10;87.80
17795;DHT22;9021;50.882;4.326;2023-09-12T11:52:02;41.00;84.00
17795;DHT22;9021;50.882;4.326;2023-09-12T11:54:28;41.50;82.00
17795;DHT22;9021;50.882;4.326;2023-09-12T11:56:54;41.70;79.70
17795;DHT22;9021;50.882;4.326;2023-09-12T11:59:22;41.80;80.20
17795;DHT22;9021;50.882;4.326;2023-09-12T12:01:48;42.40;78.40
17795;DHT22;9021;50.882;4.326;2023-09-12T12:04:14;42.10;78.20
17795;DHT22;9021;50.882;4.326;2023-09-12T12:06:39;42.00;77.60
17795;DHT22;9021;50.882;4.326;2023-09-12T12:09:05;42.70;77.90
17795;DHT22;9021;50.882;4.326;2023-09-12T12:11:31;42.90;77.20
17795;DHT22;9021;50.882;4.326;2023-09-12T12:13:57;42.70;77.00
17795;DHT22;9021;50.882;4.326;2023-09-12T12:16:24;42.20;76.20
17795;DHT22;9021;50.882;4.326;2023-09-12T12:18:50;42.50;76.40
17795;DHT22;9021;50.882;4.326;2023-09-12T12:21:19;42.80;75.10
17795;DHT22;9021;50.882;4.326;2023-09-12T12:23:45;42.90;75.30
17795;DHT22;9021;50.882;4.326;2023-09-12T12:26:10;43.30;74.80
17795;DHT22;9021;50.882;4.326;2023-09-12T12:28:36;43.90;75.40
17795;DHT22;9021;50.882;4.326;2023-09-12T12:31:02;44.00;74.20
17795;DHT22;9021;50.882;4.326;2023-09-12T12:33:28;43.80;74.50
17795;DHT22;9021;50.882;4.326;2023-09-12T12:36:03;43.40;74.20
17795;DHT22;9021;50.882;4.326;2023-09-12T12:38:36;41.90;75.60
17795;DHT22;9021;50.882;4.326;2023-09-12T12:41:01;40.10;77.60
17795;DHT22;9021;50.882;4.326;2023-09-12T12:43:27;38.40;79.20
17795;DHT22;9021;50.882;4.326;2023-09-12T12:45:58;36.80;81.10
17795;DHT22;9021;50.882;4.326;2023-09-12T12:48:30;35.40;82.70
17795;DHT22;9021;50.882;4.326;2023-09-12T12:50:56;34.40;83.50
17795;DHT22;9021;50.882;4.326;2023-09-12T12:53:41;33.80;85.00
17795;DHT22;9021;50.882;4.326;2023-09-12T12:56:07;33.20;86.30
17795;DHT22;9021;50.882;4.326;2023-09-12T12:58:33;32.80;86.50
17795;DHT22;9021;50.882;4.326;2023-09-12T13:00:58;32.40;87.50
17795;DHT22;9021;50.882;4.326;2023-09-12T13:03:24;32.30;87.90
17795;DHT22;9021;50.882;4.326;2023-09-12T13:05:49;32.10;88.30
17795;DHT22;9021;50.882;4.326;2023-09-12T13:08:15;31.90;87.80
17795;DHT22;9021;50.882;4.326;2023-09-12T13:10:40;31.60;87.30
17795;DHT22;9021;50.882;4.326;2023-09-12T13:13:08;31.40;87.60
17795;DHT22;9021;50.882;4.326;2023-09-12T13:15:33;31.20;88.70
17795;DHT22;9021;50.882;4.326;2023-09-12T13:17:59;30.90;88.30
17795;DHT22;9021;50.882;4.326;2023-09-12T13:20:24;30.80;88.90
17795;DHT22;9021;50.882;4.326;2023-09-12T13:22:50;29.40;88.30
17795;DHT22;9021;50.882;4.326;2023-09-12T13:25:15;30.50;90.00
17795;DHT22;9021;50.882;4.326;2023-09-12T13:27:41;30.30;90.90
17795;DHT22;9021;50.882;4.326;2023-09-12T13:30:07;30.20;91.60
17795;DHT22;9021;50.882;4.326;2023-09-12T13:32:32;30.00;91.40
17795;DHT22;9021;50.882;4.326;2023-09-12T13:34:58;29.80;91.60
17795;DHT22;9021;50.882;4.326;2023-09-12T13:37:24;29.70;91.90
17795;DHT22;9021;50.882;4.326;2023-09-12T13:39:50;29.50;92.10
17795;DHT22;9021;50.882;4.326;2023-09-12T13:42:16;29.40;91.40
17795;DHT22;9021;50.882;4.326;2023-09-12T13:44:49;29.30;92.10
17795;DHT22;9021;50.882;4.326;2023-09-12T13:47:15;29.20;92.30
17795;DHT22;9021;50.882;4.326;2023-09-12T13:49:47;29.10;92.40
17795;DHT22;9021;50.882;4.326;2023-09-12T13:52:13;29.00;92.80
17795;DHT22;9021;50.882;4.326;2023-09-12T13:54:40;28.90;93.30
17795;DHT22;9021;50.882;4.326;2023-09-12T13:57:05;28.90;93.10
17795;DHT22;9021;50.882;4.326;2023-09-12T13:59:31;28.80;93.50
17795;DHT22;9021;50.882;4.326;2023-09-12T14:01:56;28.80;93.50
17795;DHT22;9021;50.882;4.326;2023-09-12T14:04:22;28.80;93.60
17795;DHT22;9021;50.882;4.326;2023-09-12T14:06:47;28.70;93.80
17795;DHT22;9021;50.882;4.326;2023-09-12T14:09:13;28.70;94.10
17795;DHT22;9021;50.882;4.326;2023-09-12T14:11:38;28.70;93.60
17795;DHT22;9021;50.882;4.326;2023-09-12T14:14:05;28.60;93.80
17795;DHT22;9021;50.882;4.326;2023-09-12T14:16:31;28.60;93.90
17795;DHT22;9021;50.882;4.326;2023-09-12T14:18:59;28.60;93.90
17795;DHT22;9021;50.882;4.326;2023-09-12T14:21:25;27.50;93.90
17795;DHT22;9021;50.882;4.326;2023-09-12T14:23:52;28.50;94.00
17795;DHT22;9021;50.882;4.326;2023-09-12T14:26:18;28.30;94.00
17795;DHT22;9021;50.882;4.326;2023-09-12T14:28:43;28.30;94.30
17795;DHT22;9021;50.882;4.326;2023-09-12T14:31:09;28.10;94.60
17795;DHT22;9021;50.882;4.326;2023-09-12T14:33:39;28.10;95.20
17795;DHT22;9021;50.882;4.326;2023-09-12T14:36:08;27.90;94.80
17795;DHT22;9021;50.882;4.326;2023-09-12T14:38:34;27.90;94.50
17795;DHT22;9021;50.882;4.326;2023-09-12T14:41:00;27.90;94.60
17795;DHT22;9021;50.882;4.326;2023-09-12T14:43:25;27.80;94.90
17795;DHT22;9021;50.882;4.326;2023-09-12T14:45:56;27.70;94.80
17795;DHT22;9021;50.882;4.326;2023-09-12T14:48:22;27.60;94.80
17795;DHT22;9021;50.882;4.326;2023-09-12T14:50:47;27.60;95.10
17795;DHT22;9021;50.882;4.326;2023-09-12T14:53:14;27.60;95.50
17795;DHT22;9021;50.882;4.326;2023-09-12T14:55:41;27.60;95.60
17795;DHT22;9021;50.882;4.326;2023-09-12T14:58:06;27.60;95.60
17795;DHT22;9021;50.882;4.326;2023-09-12T15:00:32;27.60;95.40
17795;DHT22;9021;50.882;4.326;2023-09-12T15:02:59;27.50;94.70
17795;DHT22;9021;50.882;4.326;2023-09-12T15:05:25;27.50;95.20
17795;DHT22;9021;50.882;4.326;2023-09-12T15:07:50;27.40;94.70
17795;DHT22;9021;50.882;4.326;2023-09-12T15:10:17;27.20;95.50
17795;DHT22;9021;50.882;4.326;2023-09-12T15:12:42;27.20;95.90
17795;DHT22;9021;50.882;4.326;2023-09-12T15:15:08;27.30;95.90
17795;DHT22;9021;50.882;4.326;2023-09-12T15:17:34;27.20;95.90
17795;DHT22;9021;50.882;4.326;2023-09-12T15:19:59;27.20;96.20
17795;DHT22;9021;50.882;4.326;2023-09-12T15:22:25;27.20;96.30
17795;DHT22;9021;50.882;4.326;2023-09-12T15:24:50;27.20;96.30
17795;DHT22;9021;50.882;4.326;2023-09-12T15:27:16;27.10;95.90
17795;DHT22;9021;50.882;4.326;2023-09-12T15:29:41;27.00;96.00
17795;DHT22;9021;50.882;4.326;2023-09-12T15:32:07;27.10;96.50
17795;DHT22;9021;50.882;4.326;2023-09-12T15:34:32;27.00;96.40
17795;DHT22;9021;50.882;4.326;2023-09-12T15:37:11;27.00;96.30
17795;DHT22;9021;50.882;4.326;2023-09-12T15:39:37;27.10;96.40
17795;DHT22;9021;50.882;4.326;2023-09-12T15:42:02;27.00;96.60
17795;DHT22;9021;50.882;4.326;2023-09-12T15:44:28;27.00;96.80
17795;DHT22;9021;50.882;4.326;2023-09-12T15:46:54;26.90;97.10
17795;DHT22;9021;50.882;4.326;2023-09-12T15:49:20;26.70;97.10